createdAt,value
2023-01-11T00:00:48.607Z,6.50
2023-01-11T00:03:15.693Z,6.50
2023-01-11T00:05:43.739Z,6.50
2023-01-11T00:08:11.075Z,6.60
2023-01-11T00:10:38.223Z,6.60
2023-01-11T00:13:05.060Z,6.60
2023-01-11T00:15:32.337Z,6.60
2023-01-11T00:17:59.214Z,6.60
2023-01-11T00:20:26.019Z,6.60
2023-01-11T00:22:52.829Z,6.70
2023-01-11T00:25:19.798Z,6.70
2023-01-11T00:27:49.760Z,6.70
2023-01-11T00:30:17.796Z,6.80
2023-01-11T00:32:44.731Z,6.80
2023-01-11T00:35:12.049Z,6.80
2023-01-11T00:37:39.003Z,6.80
2023-01-11T00:40:06.761Z,6.90
2023-01-11T00:42:52.382Z,6.80
2023-01-11T00:45:37.609Z,6.90
2023-01-11T00:48:05.977Z,6.90
2023-01-11T00:50:35.645Z,6.90
2023-01-11T00:53:02.880Z,7.00
2023-01-11T00:55:31.843Z,7.00
2023-01-11T00:57:59.468Z,6.90
2023-01-11T01:00:27.091Z,6.90
2023-01-11T01:02:54.255Z,6.90
2023-01-11T01:05:21.389Z,6.90
2023-01-11T01:07:48.310Z,6.90
2023-01-11T01:10:17.500Z,6.90
2023-01-11T01:13:03.505Z,6.90
2023-01-11T01:15:30.497Z,6.90
2023-01-11T01:17:57.403Z,6.90
2023-01-11T01:20:25.379Z,6.90
2023-01-11T01:22:52.410Z,6.90
2023-01-11T01:25:19.446Z,6.90
2023-01-11T01:27:46.144Z,6.90
2023-01-11T01:30:13.539Z,6.90
2023-01-11T01:32:40.322Z,7.00
2023-01-11T01:35:07.652Z,7.10
2023-01-11T01:37:34.505Z,7.00
2023-01-11T01:40:01.230Z,7.10
2023-01-11T01:42:28.053Z,7.00
2023-01-11T01:45:02.273Z,7.00
2023-01-11T01:47:45.213Z,7.10
2023-01-11T01:50:25.511Z,7.10
2023-01-11T01:52:58.556Z,7.00
2023-01-11T01:55:35.703Z,7.10
2023-01-11T01:58:06.249Z,7.10
2023-01-11T02:00:33.269Z,7.10
2023-01-11T02:03:01.737Z,7.10
2023-01-11T02:05:28.768Z,7.20
2023-01-11T02:07:58.728Z,7.20
2023-01-11T02:10:28.073Z,7.20
2023-01-11T02:13:01.659Z,7.20
2023-01-11T02:15:30.089Z,7.10
2023-01-11T02:17:56.911Z,7.20
2023-01-11T02:20:53.917Z,7.20
2023-01-11T02:23:44.269Z,7.20
2023-01-11T02:26:37.566Z,7.30
2023-01-11T02:29:04.169Z,7.30
2023-01-11T02:31:36.677Z,7.30
2023-01-11T02:34:31.317Z,7.40
2023-01-11T02:37:26.357Z,7.30
2023-01-11T02:40:13.997Z,7.40
2023-01-11T02:43:14.152Z,7.30
2023-01-11T02:46:06.591Z,7.40
2023-01-11T02:48:46.188Z,7.40
2023-01-11T02:51:23.804Z,7.40
2023-01-11T02:53:55.649Z,7.50
2023-01-11T02:56:27.367Z,7.40
2023-01-11T02:58:55.112Z,7.50
2023-01-11T03:01:23.501Z,7.50
2023-01-11T03:03:51.119Z,7.60
2023-01-11T03:06:23.782Z,7.60
2023-01-11T03:09:11.341Z,7.60
2023-01-11T03:12:41.301Z,7.60
2023-01-11T03:15:14.041Z,7.70
2023-01-11T03:17:56.979Z,7.80
2023-01-11T03:20:41.718Z,7.80
2023-01-11T03:23:21.773Z,7.90
2023-01-11T03:26:23.945Z,7.90
2023-01-11T03:28:59.483Z,8.00
2023-01-11T03:31:32.239Z,8.00
2023-01-11T03:34:27.588Z,8.10
2023-01-11T03:36:59.681Z,8.10
2023-01-11T03:39:45.047Z,8.10
2023-01-11T03:42:15.110Z,8.20
2023-01-11T03:44:49.019Z,8.30
2023-01-11T03:47:18.818Z,8.30
2023-01-11T03:49:54.392Z,8.30
2023-01-11T03:52:25.688Z,8.30
2023-01-11T03:54:55.431Z,8.30
2023-01-11T03:57:23.544Z,8.30
2023-01-11T03:59:50.621Z,8.30
2023-01-11T04:02:22.838Z,8.40
2023-01-11T04:04:49.490Z,8.30
2023-01-11T04:07:16.746Z,8.40
2023-01-11T04:09:43.406Z,8.40
2023-01-11T04:12:10.182Z,8.40
2023-01-11T04:14:37.347Z,8.40
2023-01-11T04:17:05.074Z,8.50
2023-01-11T04:19:31.987Z,8.50
2023-01-11T04:21:58.775Z,8.50
2023-01-11T04:24:25.788Z,8.50
2023-01-11T04:26:52.676Z,8.50
2023-01-11T04:29:19.656Z,8.50
2023-01-11T04:31:46.410Z,8.50
2023-01-11T04:34:13.181Z,8.50
2023-01-11T04:36:41.588Z,8.50
2023-01-11T04:39:10.678Z,8.50
2023-01-11T04:41:56.887Z,8.50
2023-01-11T04:44:24.207Z,8.60
2023-01-11T04:46:51.275Z,8.60
2023-01-11T04:49:17.976Z,8.60
2023-01-11T04:51:44.718Z,8.50
2023-01-11T04:54:11.595Z,8.60
2023-01-11T04:56:38.564Z,8.60
2023-01-11T04:59:05.256Z,8.60
2023-01-11T05:01:32.175Z,8.60
2023-01-11T05:03:58.992Z,8.60
2023-01-11T05:06:25.844Z,8.60
2023-01-11T05:08:52.814Z,8.60
2023-01-11T05:11:20.348Z,8.60
2023-01-11T05:13:47.711Z,8.70
2023-01-11T05:16:25.576Z,8.60
2023-01-11T05:18:58.084Z,8.60
2023-01-11T05:21:27.470Z,8.60
2023-01-11T05:23:55.017Z,8.70
2023-01-11T05:26:24.288Z,8.70
2023-01-11T05:28:52.125Z,8.70
2023-01-11T05:31:19.101Z,8.70
2023-01-11T05:33:45.962Z,8.70
2023-01-11T05:36:15.565Z,8.80
2023-01-11T05:38:42.740Z,8.70
2023-01-11T05:41:10.710Z,8.70
2023-01-11T05:43:56.767Z,8.70
2023-01-11T05:46:24.328Z,8.80
2023-01-11T05:48:51.487Z,8.90
2023-01-11T05:51:18.328Z,8.90
2023-01-11T05:53:45.349Z,8.90
2023-01-11T05:56:12.155Z,8.90
2023-01-11T05:58:38.972Z,9.00
2023-01-11T06:01:06.402Z,9.00
2023-01-11T06:03:33.210Z,8.90
2023-01-11T06:06:00.233Z,9.00
2023-01-11T06:08:26.969Z,9.10
2023-01-11T06:10:55.573Z,9.10
2023-01-11T06:13:27.222Z,9.10
2023-01-11T06:15:53.803Z,9.10
2023-01-11T06:18:21.835Z,9.10
2023-01-11T06:20:54.183Z,9.20
2023-01-11T06:23:22.134Z,9.20
2023-01-11T06:25:49.486Z,9.20
2023-01-11T06:28:16.748Z,9.20
2023-01-11T06:30:43.960Z,9.20
2023-01-11T06:33:10.649Z,9.20
2023-01-11T06:35:39.740Z,9.30
2023-01-11T06:38:08.256Z,9.30
2023-01-11T06:40:35.862Z,9.40
2023-01-11T06:43:02.695Z,9.30
2023-01-11T06:45:30.479Z,9.40
2023-01-11T06:47:57.549Z,9.40
2023-01-11T06:50:24.633Z,9.50
2023-01-11T06:52:55.217Z,9.50
2023-01-11T06:55:23.263Z,9.50
2023-01-11T06:57:50.207Z,9.40
2023-01-11T07:00:17.736Z,9.50
2023-01-11T07:02:45.663Z,9.50
2023-01-11T07:05:13.078Z,9.50
2023-01-11T07:07:41.112Z,9.40
2023-01-11T07:10:10.405Z,9.40
2023-01-11T07:12:37.638Z,9.50
2023-01-11T07:15:06.527Z,9.40
2023-01-11T07:17:33.350Z,9.50
2023-01-11T07:20:00.284Z,9.40
2023-01-11T07:22:27.246Z,9.40
2023-01-11T07:24:53.970Z,9.50
2023-01-11T07:27:20.896Z,9.50
2023-01-11T07:29:47.619Z,9.50
2023-01-11T07:32:14.793Z,9.50
2023-01-11T07:34:42.549Z,9.50
2023-01-11T07:37:09.573Z,9.60
2023-01-11T07:39:55.404Z,9.60
2023-01-11T07:42:40.909Z,9.60
2023-01-11T07:45:08.192Z,9.60
2023-01-11T07:47:35.071Z,9.70
2023-01-11T07:50:01.975Z,9.60
2023-01-11T07:52:28.695Z,9.70
2023-01-11T07:54:55.474Z,9.70
2023-01-11T07:57:22.098Z,9.70
2023-01-11T07:59:48.757Z,9.80
2023-01-11T08:02:15.518Z,9.80
2023-01-11T08:04:42.245Z,9.80
2023-01-11T08:07:09.116Z,9.80
2023-01-11T08:09:35.773Z,9.80
2023-01-11T08:12:21.254Z,9.80
2023-01-11T08:14:47.901Z,9.90
2023-01-11T08:17:16.872Z,9.90
2023-01-11T08:19:43.825Z,9.90
2023-01-11T08:22:10.862Z,9.80
2023-01-11T08:24:37.678Z,9.90
2023-01-11T08:27:04.910Z,9.80
2023-01-11T08:29:32.144Z,9.90
2023-01-11T08:31:59.429Z,9.90
2023-01-11T08:34:28.876Z,10.00
2023-01-11T08:36:57.433Z,10.00
2023-01-11T08:39:25.168Z,10.00
2023-01-11T08:41:51.808Z,10.00
2023-01-11T08:44:25.481Z,10.00
2023-01-11T08:46:59.857Z,10.10
2023-01-11T08:49:26.532Z,10.20
2023-01-11T08:51:53.235Z,10.10
2023-01-11T08:54:19.892Z,10.10
2023-01-11T08:56:46.546Z,10.20
2023-01-11T08:59:13.648Z,10.20
2023-01-11T09:01:40.387Z,10.30
2023-01-11T09:04:23.175Z,10.30
2023-01-11T09:06:51.935Z,10.30
2023-01-11T09:09:18.575Z,10.30
2023-01-11T09:11:54.470Z,10.30
2023-01-11T09:14:22.848Z,10.30
2023-01-11T09:16:49.609Z,10.40
2023-01-11T09:19:16.670Z,10.40
2023-01-11T09:21:46.973Z,10.40
2023-01-11T09:24:15.542Z,10.40
2023-01-11T09:26:43.473Z,10.40
2023-01-11T09:29:10.999Z,10.40
2023-01-11T09:31:37.976Z,10.40
2023-01-11T09:34:05.827Z,10.40
2023-01-11T09:36:35.718Z,10.40
2023-01-11T09:39:06.288Z,10.40
2023-01-11T09:41:40.689Z,10.50
2023-01-11T09:44:16.450Z,10.40
2023-01-11T09:46:51.259Z,10.40
2023-01-11T09:49:25.034Z,10.20
2023-01-11T09:51:53.691Z,10.30
2023-01-11T09:54:26.012Z,10.20
2023-01-11T09:57:22.126Z,10.20
2023-01-11T10:00:00.664Z,10.20
2023-01-11T10:02:46.263Z,10.20
2023-01-11T10:05:21.719Z,10.20
2023-01-11T10:18:22.885Z,10.30
2023-01-11T10:18:38.838Z,10.20
2023-01-11T10:21:25.063Z,10.20
2023-01-11T10:24:26.754Z,10.20
2023-01-11T10:27:02.119Z,10.20
2023-01-11T10:29:53.344Z,10.20
2023-01-11T10:32:48.036Z,10.20
2023-01-11T10:35:59.031Z,10.20
2023-01-11T10:38:38.456Z,10.20
2023-01-11T10:41:25.700Z,10.20
2023-01-11T10:44:19.106Z,10.20
2023-01-11T10:46:52.493Z,10.20
2023-01-11T10:49:43.125Z,10.20
2023-01-11T10:52:33.381Z,10.20
2023-01-11T10:55:02.949Z,10.20
2023-01-11T10:57:59.688Z,10.20
2023-01-11T11:00:47.432Z,10.20
2023-01-11T11:03:41.944Z,10.20
2023-01-11T11:06:23.852Z,10.20
2023-01-11T11:09:13.491Z,10.20
2023-01-11T11:11:53.167Z,10.20
2023-01-11T11:14:46.909Z,10.20
2023-01-11T11:17:25.299Z,10.20
2023-01-11T11:19:53.666Z,10.20
2023-01-11T11:22:20.980Z,10.10
2023-01-11T11:24:58.291Z,10.20
2023-01-11T11:27:31.648Z,10.20
2023-01-11T11:29:58.381Z,10.10
2023-01-11T11:32:32.684Z,10.10
2023-01-11T11:35:00.200Z,10.10
2023-01-11T11:37:32.930Z,10.10
2023-01-11T11:39:59.817Z,10.10
2023-01-11T11:42:27.381Z,10.10
2023-01-11T11:45:09.209Z,10.10
2023-01-11T11:47:37.380Z,10.00
2023-01-11T11:50:36.789Z,10.00
2023-01-11T11:53:06.419Z,10.00
2023-01-11T11:55:35.256Z,10.00
2023-01-11T11:58:08.511Z,10.00
2023-01-11T12:00:41.576Z,10.00
2023-01-11T12:03:17.345Z,10.00
2023-01-11T12:06:00.637Z,10.00
2023-01-11T12:08:29.270Z,10.00
2023-01-11T12:11:01.526Z,10.00
2023-01-11T12:13:34.872Z,10.00
2023-01-11T12:16:07.367Z,10.00
2023-01-11T12:18:42.916Z,10.00
2023-01-11T12:21:24.831Z,10.00
2023-01-11T12:24:23.643Z,10.00
2023-01-11T12:27:29.303Z,10.00
2023-01-11T12:30:20.146Z,10.00
2023-01-11T12:33:05.965Z,9.90
2023-01-11T12:35:51.572Z,9.90
2023-01-11T12:38:39.997Z,9.90
2023-01-11T12:41:44.528Z,10.00
2023-01-11T12:44:18.454Z,9.90
2023-01-11T12:47:17.847Z,10.00
2023-01-11T12:50:03.839Z,9.90
2023-01-11T12:53:04.602Z,9.90
2023-01-11T12:55:42.033Z,9.90
2023-01-11T12:58:21.773Z,9.90
2023-01-11T13:01:22.928Z,9.90
2023-01-11T13:04:20.422Z,9.90
2023-01-11T13:06:56.576Z,9.90
2023-01-11T13:09:44.118Z,9.90
2023-01-11T13:12:18.406Z,9.80
2023-01-11T13:15:19.786Z,9.90
2023-01-11T13:18:20.345Z,9.90
2023-01-11T13:21:17.287Z,9.90
2023-01-11T13:23:57.553Z,10.10
2023-01-11T13:26:36.502Z,10.10
2023-01-11T13:29:29.106Z,10.10
2023-01-11T13:32:00.410Z,10.10
2023-01-11T13:34:42.104Z,10.10
2023-01-11T13:37:25.995Z,10.10
2023-01-11T13:40:02.022Z,10.10
2023-01-11T13:42:36.840Z,10.10
2023-01-11T13:45:18.559Z,10.10
2023-01-11T13:47:56.208Z,10.10
2023-01-11T13:50:25.758Z,10.10
2023-01-11T13:53:10.040Z,10.10
2023-01-11T13:55:49.312Z,10.10
2023-01-11T13:58:28.856Z,10.10
2023-01-11T14:01:09.185Z,10.10
2023-01-11T14:03:52.621Z,10.20
2023-01-11T14:06:37.277Z,10.20
2023-01-11T14:09:29.744Z,10.20
2023-01-11T14:12:02.133Z,10.20
2023-01-11T14:14:39.667Z,10.20
2023-01-11T14:17:06.500Z,10.20
2023-01-11T14:19:39.039Z,10.10
2023-01-11T14:22:12.747Z,10.10
2023-01-11T14:24:45.944Z,10.20
2023-01-11T14:27:49.422Z,10.20
2023-01-11T14:30:49.605Z,10.20
2023-01-11T14:33:34.991Z,10.20
2023-01-11T14:36:26.027Z,10.20
2023-01-11T14:39:17.324Z,10.10
2023-01-11T14:42:35.121Z,10.10
2023-01-11T14:45:14.152Z,10.10
2023-01-11T14:48:14.452Z,10.00
2023-01-11T14:51:10.164Z,10.00
2023-01-11T14:53:43.243Z,10.00
2023-01-11T14:56:35.233Z,9.90
2023-01-11T14:59:04.337Z,9.90
2023-01-11T15:02:02.980Z,9.90
2023-01-11T15:04:52.107Z,9.90
2023-01-11T15:07:31.088Z,9.90
2023-01-11T15:10:00.335Z,9.90
2023-01-11T15:12:38.389Z,9.80
2023-01-11T15:15:47.422Z,9.80
2023-01-11T15:18:24.261Z,9.70
2023-01-11T15:20:58.428Z,9.70
2023-01-11T15:23:26.111Z,9.70
2023-01-11T15:26:01.310Z,9.70
2023-01-11T15:28:40.616Z,9.70
2023-01-11T15:31:27.438Z,9.60
2023-01-11T15:33:55.300Z,9.60
2023-01-11T15:36:25.105Z,9.60
2023-01-11T15:38:59.787Z,9.60
2023-01-11T15:42:11.395Z,9.50
2023-01-11T15:45:23.213Z,9.40
2023-01-11T15:48:20.302Z,9.40
2023-01-11T15:51:25.054Z,9.30
2023-01-11T15:54:15.711Z,9.30
2023-01-11T15:57:12.291Z,9.20
2023-01-11T15:59:57.682Z,9.20
2023-01-11T16:02:58.309Z,9.10
2023-01-11T16:05:32.117Z,9.10
2023-01-11T16:08:10.309Z,9.10
2023-01-11T16:10:57.477Z,9.00
2023-01-11T16:13:37.491Z,9.00
2023-01-11T16:16:26.775Z,8.90
2023-01-11T16:18:56.708Z,9.00
2023-01-11T16:21:35.925Z,8.90
2023-01-11T16:24:07.153Z,8.90
2023-01-11T16:26:36.769Z,8.80
2023-01-11T16:29:17.475Z,8.90
2023-01-11T16:31:55.428Z,8.90
2023-01-11T16:34:22.213Z,8.90
2023-01-11T16:36:49.263Z,8.90
2023-01-11T16:39:25.693Z,8.90
2023-01-11T16:42:05.867Z,8.80
2023-01-11T16:44:33.241Z,8.90
2023-01-11T16:47:20.308Z,8.90
2023-01-11T16:49:49.710Z,8.80
2023-01-11T16:52:28.780Z,8.90
2023-01-11T16:54:59.098Z,8.80
2023-01-11T16:57:36.304Z,8.80
2023-01-11T17:00:15.939Z,8.90
2023-01-11T17:02:47.100Z,8.90
2023-01-11T17:05:23.126Z,8.80
2023-01-11T17:07:50.036Z,8.80
2023-01-11T17:10:21.902Z,8.90
2023-01-11T17:13:38.091Z,8.80
2023-01-11T17:16:13.962Z,8.80
2023-01-11T17:18:42.435Z,8.80
2023-01-11T17:21:21.527Z,8.80
2023-01-11T17:23:51.237Z,8.80
2023-01-11T17:26:24.261Z,8.80
2023-01-11T17:28:55.696Z,8.80
2023-01-11T17:31:32.167Z,8.80
2023-01-11T17:34:20.426Z,8.70
2023-01-11T17:36:48.110Z,8.60
2023-01-11T17:39:29.299Z,8.60
2023-01-11T17:42:16.413Z,8.50
2023-01-11T17:45:03.557Z,8.40
2023-01-11T17:47:31.203Z,8.30
2023-01-11T17:50:01.774Z,8.30
2023-01-11T17:52:38.955Z,8.20
2023-01-11T17:55:19.522Z,8.20
2023-01-11T17:58:13.536Z,8.20
2023-01-11T18:00:43.853Z,8.30
2023-01-11T18:03:18.554Z,8.40
2023-01-11T18:05:45.338Z,8.40
2023-01-11T18:08:19.567Z,8.30
2023-01-11T18:10:55.498Z,8.20
2023-01-11T18:13:31.403Z,8.10
2023-01-11T18:15:58.533Z,8.00
2023-01-11T18:18:44.315Z,7.80
2023-01-11T18:21:27.414Z,7.80
2023-01-11T18:24:09.600Z,7.70
2023-01-11T18:26:47.553Z,7.60
2023-01-11T18:29:35.985Z,7.50
2023-01-11T18:32:08.287Z,7.50
2023-01-11T18:34:34.988Z,7.40
2023-01-11T18:37:06.254Z,7.30
2023-01-11T18:39:34.486Z,7.40
2023-01-11T18:42:09.345Z,7.30
2023-01-11T18:44:37.591Z,7.40
2023-01-11T18:47:20.936Z,7.40
2023-01-11T18:49:48.789Z,7.50
2023-01-11T18:52:15.503Z,7.50
2023-01-11T18:54:42.371Z,7.50
2023-01-11T18:57:09.589Z,7.50
2023-01-11T18:59:36.510Z,7.40
2023-01-11T19:02:17.316Z,7.40
2023-01-11T19:04:44.877Z,7.40
2023-01-11T19:07:12.258Z,7.50
2023-01-11T19:09:39.162Z,7.50
2023-01-11T19:12:06.279Z,7.60
2023-01-11T19:14:33.334Z,7.70
2023-01-11T19:17:00.111Z,7.70
2023-01-11T19:19:26.782Z,7.60
2023-01-11T19:21:53.553Z,7.60
2023-01-11T19:24:20.313Z,7.50
2023-01-11T19:26:47.129Z,7.50
2023-01-11T19:29:18.612Z,7.50
2023-01-11T19:31:46.739Z,7.40
2023-01-11T19:34:13.757Z,7.40
2023-01-11T19:36:41.127Z,7.50
2023-01-11T19:39:08.560Z,7.40
2023-01-11T19:41:54.503Z,7.40
2023-01-11T19:44:22.149Z,7.30
2023-01-11T19:46:53.094Z,7.30
2023-01-11T19:49:27.577Z,7.20
2023-01-11T19:51:54.982Z,7.20
2023-01-11T19:54:23.195Z,7.10
2023-01-11T19:56:49.914Z,7.20
2023-01-11T19:59:16.853Z,7.10
2023-01-11T20:01:44.876Z,7.00
2023-01-11T20:04:12.798Z,7.00
2023-01-11T20:06:50.151Z,7.00
2023-01-11T20:09:18.198Z,7.00
2023-01-11T20:11:45.603Z,7.00
2023-01-11T20:14:12.486Z,7.10
2023-01-11T20:16:39.196Z,7.00
2023-01-11T20:19:05.957Z,6.90
2023-01-11T20:21:34.170Z,7.00
2023-01-11T20:24:01.917Z,7.00
2023-01-11T20:26:30.577Z,7.00
2023-01-11T20:28:58.006Z,7.10
2023-01-11T20:31:28.131Z,7.10
2023-01-11T20:33:55.741Z,7.10
2023-01-11T20:36:23.055Z,7.20
2023-01-11T20:38:50.513Z,7.10
2023-01-11T20:41:39.276Z,7.10
2023-01-11T20:44:07.320Z,7.00
2023-01-11T20:46:37.058Z,7.00
2023-01-11T20:49:05.270Z,7.00
2023-01-11T20:51:31.995Z,7.00
2023-01-11T20:53:58.823Z,7.10
2023-01-11T20:56:25.804Z,7.00
2023-01-11T20:58:52.788Z,7.00
2023-01-11T21:03:15.117Z,7.00
2023-01-11T21:05:41.764Z,7.00
2023-01-11T21:08:08.453Z,7.00
2023-01-11T21:10:35.132Z,7.00
2023-01-11T21:13:03.742Z,7.00
2023-01-11T21:15:30.737Z,7.00
2023-01-11T21:17:57.917Z,6.90
2023-01-11T21:20:24.662Z,6.90
2023-01-11T21:22:51.588Z,6.90
2023-01-11T21:25:18.376Z,6.80
2023-01-11T21:27:45.411Z,6.80
2023-01-11T21:30:12.402Z,6.80
2023-01-11T21:32:39.085Z,6.70
2023-01-11T21:35:06.888Z,6.60
2023-01-11T21:37:33.700Z,6.70
2023-01-11T21:40:00.442Z,6.60
2023-01-11T21:42:27.273Z,6.70
2023-01-11T21:44:53.964Z,6.70
2023-01-11T21:47:22.131Z,6.70
2023-01-11T21:49:48.850Z,6.70
2023-01-11T21:52:15.630Z,6.70
2023-01-11T21:54:42.395Z,6.60
2023-01-11T21:57:09.350Z,6.60
2023-01-11T21:59:36.084Z,6.60
2023-01-11T22:02:02.818Z,6.60
2023-01-11T22:04:29.650Z,6.60
2023-01-11T22:06:58.272Z,6.70
2023-01-11T22:09:26.840Z,6.70
2023-01-11T22:11:53.789Z,6.70
2023-01-11T22:14:20.887Z,6.70
2023-01-11T22:16:47.594Z,6.70
2023-01-11T22:19:15.135Z,6.70
2023-01-11T22:21:41.867Z,6.70
2023-01-11T22:24:12.161Z,6.70
2023-01-11T22:26:39.640Z,6.70
2023-01-11T22:29:17.705Z,6.70
2023-01-11T22:31:46.575Z,6.60
2023-01-11T22:34:13.825Z,6.50
2023-01-11T22:36:41.364Z,6.60
2023-01-11T22:39:08.408Z,6.60
2023-01-11T22:41:35.331Z,6.60
2023-01-11T22:44:02.330Z,6.50
2023-01-11T22:46:29.130Z,6.40
2023-01-11T22:48:55.891Z,6.50
2023-01-11T22:51:24.782Z,6.60
2023-01-11T22:53:52.944Z,6.60
2023-01-11T22:56:24.713Z,6.60
2023-01-11T22:58:54.852Z,6.60
2023-01-11T23:01:28.985Z,6.60
2023-01-11T23:03:56.894Z,6.60
2023-01-11T23:06:39.168Z,6.60
2023-01-11T23:09:09.500Z,6.60
2023-01-11T23:11:56.707Z,6.60
2023-01-11T23:14:30.532Z,6.70
2023-01-11T23:17:07.473Z,6.70
2023-01-11T23:19:36.208Z,6.80
2023-01-11T23:22:03.373Z,6.80
2023-01-11T23:24:30.094Z,6.80
2023-01-11T23:26:56.912Z,6.80
2023-01-11T23:29:23.772Z,6.80
2023-01-11T23:31:50.506Z,6.80
2023-01-11T23:34:17.239Z,6.80
2023-01-11T23:36:44.069Z,6.80
2023-01-11T23:39:14.299Z,6.80
2023-01-11T23:41:59.779Z,6.80
2023-01-11T23:44:26.502Z,6.90
2023-01-11T23:47:12.407Z,6.90
2023-01-11T23:49:39.204Z,7.00
2023-01-11T23:52:06.514Z,7.00
2023-01-11T23:54:34.040Z,7.10
2023-01-11T23:57:02.288Z,7.10
2023-01-11T23:59:29.178Z,7.10
